createdAt,value
2022-10-11T00:02:08.490Z,5.30
2022-10-11T00:04:35.236Z,10.63
2022-10-11T00:07:01.977Z,6.43
2022-10-11T00:09:28.686Z,7.00
2022-10-11T00:11:56.279Z,3.88
2022-10-11T00:14:24.682Z,8.48
2022-10-11T00:16:51.787Z,6.25
2022-10-11T00:19:18.781Z,4.55
2022-10-11T00:21:46.007Z,7.35
2022-10-11T00:24:13.596Z,8.55
2022-10-11T00:26:43.276Z,4.88
2022-10-11T00:29:13.265Z,9.25
2022-10-11T00:31:40.543Z,6.20
2022-10-11T00:34:07.468Z,7.18
2022-10-11T00:36:34.488Z,8.35
2022-10-11T00:39:01.275Z,7.13
2022-10-11T00:41:28.140Z,8.77
2022-10-11T00:44:17.552Z,7.72
2022-10-11T00:46:55.572Z,10.43
2022-10-11T00:49:47.057Z,9.40
2022-10-11T00:52:29.067Z,4.68
2022-10-11T00:55:05.878Z,5.30
2022-10-11T00:57:36.020Z,4.55
2022-10-11T01:00:07.872Z,6.22
2022-10-11T01:02:34.751Z,8.07
2022-10-11T01:05:27.608Z,6.65
2022-10-11T01:07:49.560Z,5.70
2022-10-11T01:10:16.457Z,8.93
2022-10-11T01:13:03.664Z,5.43
2022-10-11T01:15:42.410Z,5.95
2022-10-11T01:18:22.065Z,8.25
2022-10-11T01:21:00.141Z,4.90
2022-10-11T01:23:54.369Z,8.63
2022-10-11T01:26:55.270Z,8.75
2022-10-11T01:29:37.015Z,9.02
2022-10-11T01:34:52.975Z,8.55
2022-10-11T01:37:26.888Z,6.88
2022-10-11T01:40:03.133Z,6.75
2022-10-11T01:42:30.812Z,6.07
2022-10-11T01:44:59.316Z,5.35
2022-10-11T01:47:26.667Z,10.60
2022-10-11T01:49:55.746Z,10.70
2022-10-11T01:52:22.934Z,4.63
2022-10-11T01:55:21.279Z,5.70
2022-10-11T01:58:09.817Z,11.07
2022-10-11T02:00:48.460Z,4.93
2022-10-11T02:03:24.318Z,4.20
2022-10-11T02:06:01.155Z,5.05
2022-10-11T02:08:49.893Z,4.82
2022-10-11T02:11:24.425Z,4.75
2022-10-11T02:13:57.667Z,4.47
2022-10-11T02:16:31.403Z,6.15
2022-10-11T02:18:59.458Z,3.63
2022-10-11T02:21:27.944Z,6.80
2022-10-11T02:24:13.463Z,4.00
2022-10-11T02:26:43.538Z,6.18
2022-10-11T02:29:13.979Z,5.57
2022-10-11T02:31:43.485Z,7.05
2022-10-11T02:34:17.202Z,5.22
2022-10-11T02:37:10.324Z,8.32
2022-10-11T02:39:55.817Z,5.53
2022-10-11T02:42:33.808Z,4.75
2022-10-11T02:45:07.375Z,5.35
2022-10-11T02:47:34.979Z,4.70
2022-10-11T02:50:02.750Z,5.47
2022-10-11T02:52:29.724Z,6.75
2022-10-11T02:54:56.444Z,6.88
2022-10-11T02:57:23.118Z,5.15
2022-10-11T02:59:52.241Z,5.65
2022-10-11T03:02:19.034Z,6.93
2022-10-11T03:04:45.941Z,8.73
2022-10-11T03:07:12.697Z,6.88
2022-10-11T03:09:39.439Z,7.70
2022-10-11T03:12:06.694Z,6.53
2022-10-11T03:14:33.470Z,6.47
2022-10-11T03:17:17.288Z,7.15
2022-10-11T03:19:47.636Z,7.18
2022-10-11T03:22:14.496Z,9.57
2022-10-11T03:24:41.169Z,6.03
2022-10-11T03:27:08.056Z,4.68
2022-10-11T03:29:34.755Z,7.10
2022-10-11T03:32:01.830Z,3.85
2022-10-11T03:34:28.690Z,6.20
2022-10-11T03:36:55.414Z,8.13
2022-10-11T03:39:22.198Z,6.32
2022-10-11T03:41:48.926Z,7.30
2022-10-11T03:44:15.654Z,7.28
2022-10-11T03:46:42.365Z,4.95
2022-10-11T03:49:09.173Z,5.53
2022-10-11T03:51:36.497Z,5.70
2022-10-11T03:54:03.411Z,4.88
2022-10-11T03:56:30.184Z,5.45
2022-10-11T03:58:56.879Z,5.95
2022-10-11T04:01:23.661Z,7.25
2022-10-11T04:03:50.449Z,6.75
2022-10-11T04:06:17.427Z,5.65
2022-10-11T04:08:44.231Z,6.68
2022-10-11T04:11:10.936Z,3.83
2022-10-11T04:13:37.699Z,5.57
2022-10-11T04:16:05.025Z,6.72
2022-10-11T04:18:31.937Z,9.48
2022-10-11T04:20:58.678Z,11.35
2022-10-11T04:23:25.464Z,9.98
2022-10-11T04:25:52.150Z,9.38
2022-10-11T04:28:18.892Z,5.78
2022-10-11T04:30:45.619Z,10.55
2022-10-11T04:33:12.369Z,9.75
2022-10-11T04:35:39.531Z,10.15
2022-10-11T04:38:06.574Z,10.70
2022-10-11T04:40:33.414Z,13.02
2022-10-11T04:43:00.429Z,15.02
2022-10-11T04:45:27.127Z,15.10
2022-10-11T04:47:53.846Z,11.02
2022-10-11T04:50:20.607Z,9.80
2022-10-11T04:52:47.394Z,9.30
2022-10-11T04:55:14.176Z,10.48
2022-10-11T04:57:40.974Z,10.60
2022-10-11T05:00:08.209Z,9.70
2022-10-11T05:02:34.927Z,12.02
2022-10-11T05:05:01.657Z,8.93
2022-10-11T05:07:28.607Z,7.63
2022-10-11T05:09:55.401Z,10.55
2022-10-11T05:12:22.225Z,10.05
2022-10-11T05:14:49.068Z,12.18
2022-10-11T05:17:15.831Z,7.97
2022-10-11T05:19:45.162Z,8.93
2022-10-11T05:22:11.946Z,7.30
2022-10-11T05:24:38.789Z,26.17
2022-10-11T05:27:05.586Z,16.17
2022-10-11T05:29:32.318Z,5.80
2022-10-11T05:31:59.876Z,7.90
2022-10-11T05:34:26.744Z,7.88
2022-10-11T05:36:53.472Z,6.63
2022-10-11T05:39:20.223Z,7.35
2022-10-11T05:41:46.918Z,7.18
2022-10-11T05:44:13.809Z,11.52
2022-10-11T05:46:40.626Z,21.08
2022-10-11T05:49:07.310Z,16.17
2022-10-11T05:51:34.051Z,15.55
2022-10-11T05:54:00.749Z,13.85
2022-10-11T05:56:27.608Z,14.75
2022-10-11T05:58:58.700Z,12.10
2022-10-11T06:01:28.463Z,12.52
2022-10-11T06:03:55.938Z,12.35
2022-10-11T06:06:23.129Z,17.77
2022-10-11T06:08:50.148Z,15.95
2022-10-11T06:11:20.401Z,21.63
2022-10-11T06:13:47.280Z,34.65
2022-10-11T06:16:14.034Z,43.28
2022-10-11T06:18:41.314Z,32.58
2022-10-11T06:21:08.123Z,29.35
2022-10-11T06:23:34.861Z,29.15
2022-10-11T06:26:08.920Z,22.95
2022-10-11T06:28:37.670Z,22.45
2022-10-11T06:31:05.798Z,17.23
2022-10-11T06:33:33.326Z,14.45
2022-10-11T06:36:06.380Z,12.50
2022-10-11T06:38:33.332Z,12.15
2022-10-11T06:41:20.883Z,12.43
2022-10-11T06:43:49.764Z,11.30
2022-10-11T06:46:19.910Z,11.75
2022-10-11T06:48:47.931Z,14.20
2022-10-11T06:51:17.511Z,15.10
2022-10-11T06:53:48.551Z,17.10
2022-10-11T06:56:15.272Z,15.10
2022-10-11T06:58:42.000Z,16.52
2022-10-11T07:01:12.271Z,16.92
2022-10-11T07:03:39.537Z,15.40
2022-10-11T07:06:18.412Z,18.73
2022-10-11T07:08:45.476Z,20.58
2022-10-11T07:11:20.772Z,24.30
2022-10-11T07:13:52.661Z,20.95
2022-10-11T07:16:20.194Z,24.10
2022-10-11T07:18:47.973Z,24.35
2022-10-11T07:21:16.104Z,20.42
2022-10-11T07:23:43.173Z,20.33
2022-10-11T07:26:10.996Z,18.17
2022-10-11T07:28:39.055Z,16.35
2022-10-11T07:31:08.780Z,17.15
2022-10-11T07:33:35.538Z,19.05
2022-10-11T07:36:04.467Z,19.02
2022-10-11T07:38:31.909Z,16.92
2022-10-11T07:40:58.600Z,22.10
2022-10-11T07:43:25.487Z,25.63
2022-10-11T07:45:55.429Z,24.52
2022-10-11T07:48:22.418Z,27.27
2022-10-11T07:50:49.383Z,22.90
2022-10-11T07:53:16.101Z,20.75
2022-10-11T07:55:42.990Z,21.27
2022-10-11T07:58:12.277Z,22.23
2022-10-11T08:00:40.054Z,14.95
2022-10-11T08:03:07.477Z,19.15
2022-10-11T08:05:36.710Z,20.60
2022-10-11T08:08:03.504Z,17.50
2022-10-11T08:10:30.282Z,15.27
2022-10-11T08:13:01.909Z,20.70
2022-10-11T08:15:31.091Z,22.42
2022-10-11T08:17:57.819Z,15.73
2022-10-11T08:20:24.568Z,19.23
2022-10-11T08:22:51.426Z,19.45
2022-10-11T08:25:18.154Z,20.50
2022-10-11T08:27:44.860Z,24.35
2022-10-11T08:30:12.229Z,20.27
2022-10-11T08:32:38.942Z,21.35
2022-10-11T08:35:06.264Z,29.20
2022-10-11T08:37:32.960Z,21.77
2022-10-11T08:40:00.222Z,23.85
2022-10-11T08:42:43.029Z,23.65
2022-10-11T08:45:32.542Z,23.90
2022-10-11T08:48:16.059Z,28.00
2022-10-11T08:50:46.385Z,23.20
2022-10-11T08:53:28.113Z,24.23
2022-10-11T08:58:25.858Z,24.77
2022-10-11T09:00:55.074Z,22.47
2022-10-11T09:03:28.372Z,28.15
2022-10-11T09:05:55.018Z,22.42
2022-10-11T09:08:38.226Z,19.63
2022-10-11T09:11:08.592Z,21.13
2022-10-11T09:13:55.310Z,23.48
2022-10-11T09:16:34.149Z,26.08
2022-10-11T09:19:16.884Z,23.90
2022-10-11T09:21:52.667Z,22.77
2022-10-11T09:24:26.954Z,17.27
2022-10-11T09:27:00.872Z,21.85
2022-10-11T09:29:46.465Z,19.15
2022-10-11T09:32:16.235Z,22.17
2022-10-11T09:34:43.447Z,23.42
2022-10-11T09:37:27.270Z,18.83
2022-10-11T09:40:01.081Z,19.85
2022-10-11T09:42:27.756Z,16.33
2022-10-11T09:44:55.171Z,21.25
2022-10-11T09:47:28.325Z,20.45
2022-10-11T09:50:04.735Z,25.33
2022-10-11T09:52:31.441Z,20.38
2022-10-11T09:55:00.632Z,21.48
2022-10-11T09:57:30.400Z,23.23
2022-10-11T10:00:16.674Z,23.30
2022-10-11T10:02:49.465Z,30.23
2022-10-11T10:05:22.600Z,25.73
2022-10-11T10:08:08.313Z,24.90
2022-10-11T10:10:44.256Z,19.58
2022-10-11T10:13:21.976Z,28.30
2022-10-11T10:15:53.576Z,38.47
2022-10-11T10:18:31.737Z,27.65
2022-10-11T10:21:00.490Z,22.15
2022-10-11T10:23:34.735Z,27.92
2022-10-11T10:26:22.647Z,28.77
2022-10-11T10:29:08.223Z,24.95
2022-10-11T10:32:08.812Z,25.83
2022-10-11T10:34:33.807Z,25.80
2022-10-11T10:37:08.370Z,21.63
2022-10-11T10:40:02.194Z,22.85
2022-10-11T10:42:29.097Z,22.35
2022-10-11T10:44:58.450Z,21.08
2022-10-11T10:47:43.252Z,22.33
2022-10-11T10:50:19.047Z,22.00
2022-10-11T10:52:59.884Z,18.90
2022-10-11T10:55:41.670Z,23.07
2022-10-11T10:58:23.139Z,18.77
2022-10-11T11:00:58.316Z,21.58
2022-10-11T11:03:39.845Z,19.73
2022-10-11T11:06:12.225Z,22.75
2022-10-11T11:08:47.789Z,19.92
2022-10-11T11:11:51.117Z,21.48
2022-10-11T11:14:38.478Z,18.27
2022-10-11T11:17:28.466Z,20.38
2022-10-11T11:20:03.059Z,15.52
2022-10-11T11:22:53.729Z,16.15
2022-10-11T11:25:42.548Z,20.00
2022-10-11T11:28:19.040Z,17.53
2022-10-11T11:31:00.594Z,19.10
2022-10-11T11:33:47.784Z,21.95
2022-10-11T11:36:23.736Z,19.80
2022-10-11T11:39:02.275Z,16.88
2022-10-11T11:41:39.453Z,17.90
2022-10-11T11:44:36.445Z,15.40
2022-10-11T11:47:05.735Z,19.23
2022-10-11T11:52:25.022Z,20.50
2022-10-11T11:55:03.999Z,23.83
2022-10-11T11:57:39.977Z,25.55
2022-10-11T12:00:20.653Z,21.33
2022-10-11T12:03:03.935Z,20.23
2022-10-11T12:05:34.176Z,24.92
2022-10-11T12:08:06.039Z,24.58
2022-10-11T12:11:00.125Z,27.95
2022-10-11T12:13:32.273Z,22.13
2022-10-11T12:16:12.236Z,22.70
2022-10-11T12:18:54.186Z,21.48
2022-10-11T12:21:34.890Z,22.02
2022-10-11T12:24:23.783Z,19.08
2022-10-11T12:26:55.324Z,21.30
2022-10-11T12:31:58.757Z,19.65
2022-10-11T12:34:34.161Z,17.08
2022-10-11T12:37:21.102Z,21.35
2022-10-11T12:40:00.455Z,15.30
2022-10-11T12:42:27.178Z,16.67
2022-10-11T12:45:13.003Z,18.65
2022-10-11T12:47:52.001Z,21.77
2022-10-11T12:50:33.432Z,14.52
2022-10-11T12:53:22.194Z,19.42
2022-10-11T12:56:14.839Z,20.25
2022-10-11T12:58:48.036Z,21.30
2022-10-11T13:01:19.493Z,17.48
2022-10-11T13:06:36.248Z,16.40
2022-10-11T13:09:05.640Z,19.65
2022-10-11T13:11:40.484Z,20.52
2022-10-11T13:14:11.628Z,19.38
2022-10-11T13:17:04.357Z,20.13
2022-10-11T13:19:34.127Z,21.67
2022-10-11T13:22:04.670Z,18.90
2022-10-11T13:24:41.234Z,17.52
2022-10-11T13:27:11.679Z,17.55
2022-10-11T13:29:41.033Z,22.92
2022-10-11T13:32:19.786Z,19.30
2022-10-11T13:34:49.314Z,15.77
2022-10-11T13:37:19.821Z,15.63
2022-10-11T13:39:48.909Z,15.60
2022-10-11T13:42:18.319Z,15.10
2022-10-11T13:44:46.466Z,19.42
2022-10-11T13:47:15.572Z,19.85
2022-10-11T13:49:50.391Z,22.20
2022-10-11T13:52:23.119Z,16.85
2022-10-11T13:55:00.961Z,16.05
2022-10-11T13:57:36.599Z,20.65
2022-10-11T14:00:15.623Z,15.88
2022-10-11T14:02:51.635Z,15.45
2022-10-11T14:05:52.416Z,19.35
2022-10-11T14:08:25.201Z,14.32
2022-10-11T14:10:56.730Z,20.90
2022-10-11T14:13:35.491Z,22.38
2022-10-11T14:16:11.792Z,20.25
2022-10-11T14:18:44.825Z,15.85
2022-10-11T14:21:25.067Z,19.33
2022-10-11T14:23:53.865Z,15.35
2022-10-11T14:26:22.043Z,26.63
2022-10-11T14:28:58.762Z,13.52
2022-10-11T14:31:29.987Z,20.38
2022-10-11T14:33:57.418Z,17.90
2022-10-11T14:36:24.618Z,17.17
2022-10-11T14:38:52.143Z,15.98
2022-10-11T14:41:19.038Z,15.98
2022-10-11T14:43:45.766Z,17.75
2022-10-11T14:46:23.937Z,16.38
2022-10-11T14:48:55.423Z,14.07
2022-10-11T14:51:27.481Z,16.75
2022-10-11T14:53:54.326Z,17.20
2022-10-11T14:56:21.935Z,15.70
2022-10-11T14:58:49.359Z,21.00
2022-10-11T15:01:17.534Z,13.80
2022-10-11T15:03:44.548Z,13.68
2022-10-11T15:06:22.968Z,14.50
2022-10-11T15:08:49.918Z,12.27
2022-10-11T15:11:18.987Z,13.80
2022-10-11T15:13:46.264Z,15.75
2022-10-11T15:16:15.562Z,16.90
2022-10-11T15:18:43.875Z,16.58
2022-10-11T15:21:14.351Z,13.77
2022-10-11T15:23:41.390Z,13.77
2022-10-11T15:26:13.545Z,16.88
2022-10-11T15:28:41.076Z,15.73
2022-10-11T15:31:10.166Z,16.98
2022-10-11T15:33:37.631Z,14.75
2022-10-11T15:36:06.435Z,11.00
2022-10-11T15:38:33.736Z,16.52
2022-10-11T15:41:00.835Z,15.60
2022-10-11T15:43:27.858Z,17.38
2022-10-11T15:45:55.948Z,16.73
2022-10-11T15:48:26.305Z,18.50
2022-10-11T15:50:54.122Z,14.15
2022-10-11T15:53:25.682Z,17.33
2022-10-11T15:55:57.178Z,17.40
2022-10-11T16:00:55.785Z,15.35
2022-10-11T16:03:25.577Z,18.40
2022-10-11T16:05:53.837Z,19.23
2022-10-11T16:08:21.137Z,21.00
2022-10-11T16:10:47.988Z,29.90
2022-10-11T16:13:15.292Z,19.00
2022-10-11T16:15:43.423Z,16.05
2022-10-11T16:18:13.155Z,16.30
2022-10-11T16:20:45.057Z,19.08
2022-10-11T16:23:13.058Z,21.33
2022-10-11T16:25:41.170Z,23.60
2022-10-11T16:28:09.431Z,23.20
2022-10-11T16:30:43.169Z,20.50
2022-10-11T16:33:10.236Z,17.38
2022-10-11T16:35:40.683Z,21.33
2022-10-11T16:38:07.449Z,18.25
2022-10-11T16:40:36.048Z,27.05
2022-10-11T16:43:07.351Z,22.65
2022-10-11T16:45:35.155Z,22.70
2022-10-11T16:48:02.680Z,28.45
2022-10-11T16:50:29.419Z,21.23
2022-10-11T16:52:56.406Z,20.85
2022-10-11T16:55:23.181Z,22.42
2022-10-11T16:57:49.943Z,23.95
2022-10-11T17:00:16.975Z,20.10
2022-10-11T17:02:43.870Z,17.58
2022-10-11T17:05:10.721Z,20.83
2022-10-11T17:07:37.586Z,26.77
2022-10-11T17:10:05.673Z,23.25
2022-10-11T17:12:35.347Z,22.08
2022-10-11T17:15:02.052Z,17.67
2022-10-11T17:17:29.570Z,21.58
2022-10-11T17:19:56.265Z,21.13
2022-10-11T17:22:23.018Z,24.85
2022-10-11T17:24:49.783Z,20.75
2022-10-11T17:27:16.568Z,17.52
2022-10-11T17:29:43.379Z,21.90
2022-10-11T17:32:10.137Z,23.73
2022-10-11T17:34:36.911Z,21.75
2022-10-11T17:37:03.736Z,22.95
2022-10-11T17:39:30.823Z,20.65
2022-10-11T17:41:57.862Z,19.65
2022-10-11T17:44:24.618Z,21.70
2022-10-11T17:46:51.433Z,18.35
2022-10-11T17:49:18.180Z,19.52
2022-10-11T17:51:45.090Z,19.02
2022-10-11T17:54:13.204Z,17.13
2022-10-11T17:56:41.777Z,23.42
2022-10-11T17:59:15.723Z,20.55
2022-10-11T18:01:43.084Z,22.30
2022-10-11T18:04:16.535Z,22.75
2022-10-11T18:06:45.882Z,22.55
2022-10-11T18:09:15.065Z,20.65
2022-10-11T18:11:41.879Z,21.95
2022-10-11T18:14:09.067Z,18.98
2022-10-11T18:16:36.996Z,21.23
2022-10-11T18:19:06.231Z,16.42
2022-10-11T18:21:34.825Z,19.02
2022-10-11T18:24:04.953Z,20.05
2022-10-11T18:26:32.217Z,15.52
2022-10-11T18:28:59.727Z,22.85
2022-10-11T18:31:29.934Z,24.08
2022-10-11T18:33:57.337Z,28.63
2022-10-11T18:36:27.116Z,28.92
2022-10-11T18:38:56.572Z,25.20
2022-10-11T18:41:30.530Z,30.20
2022-10-11T18:44:00.099Z,32.55
2022-10-11T18:46:27.970Z,40.67
2022-10-11T18:48:56.403Z,37.83
2022-10-11T18:51:28.626Z,33.30
2022-10-11T18:53:58.607Z,29.80
2022-10-11T18:56:26.888Z,27.83
2022-10-11T18:58:55.746Z,24.45
2022-10-11T19:01:31.257Z,27.17
2022-10-11T19:03:59.914Z,24.33
2022-10-11T19:06:29.505Z,27.15
2022-10-11T19:09:11.126Z,30.50
2022-10-11T19:11:38.858Z,25.63
2022-10-11T19:14:08.899Z,21.63
2022-10-11T19:16:38.396Z,23.45
2022-10-11T19:19:05.978Z,28.00
2022-10-11T19:21:32.942Z,27.10
2022-10-11T19:23:59.890Z,26.40
2022-10-11T19:26:35.488Z,26.48
2022-10-11T19:29:23.672Z,23.05
2022-10-11T19:31:52.760Z,22.23
2022-10-11T19:34:20.200Z,23.02
2022-10-11T19:36:49.971Z,21.25
2022-10-11T19:39:18.286Z,22.13
2022-10-11T19:41:45.690Z,31.85
2022-10-11T19:44:13.173Z,23.98
2022-10-11T19:46:55.649Z,26.05
2022-10-11T19:49:25.263Z,21.17
2022-10-11T19:51:55.753Z,18.35
2022-10-11T19:54:22.869Z,25.67
2022-10-11T19:56:49.799Z,27.23
2022-10-11T19:59:16.975Z,19.38
2022-10-11T20:01:47.892Z,21.15
2022-10-11T20:04:39.439Z,26.75
2022-10-11T20:07:04.743Z,24.23
2022-10-11T20:09:31.473Z,26.25
2022-10-11T20:11:58.335Z,24.92
2022-10-11T20:14:25.602Z,26.55
2022-10-11T20:16:52.367Z,24.00
2022-10-11T20:19:19.364Z,26.50
2022-10-11T20:21:46.161Z,24.65
2022-10-11T20:24:13.137Z,26.88
2022-10-11T20:26:40.161Z,28.00
2022-10-11T20:29:07.175Z,24.38
2022-10-11T20:31:38.192Z,38.65
2022-10-11T20:34:07.467Z,27.10
2022-10-11T20:36:35.966Z,30.38
2022-10-11T20:39:03.658Z,31.77
2022-10-11T20:41:33.521Z,26.75
2022-10-11T20:44:04.131Z,23.13
2022-10-11T20:46:33.453Z,30.60
2022-10-11T20:49:03.791Z,25.88
2022-10-11T20:51:32.824Z,28.53
2022-10-11T20:54:00.628Z,29.50
2022-10-11T20:56:28.103Z,34.38
2022-10-11T20:58:56.830Z,33.08
2022-10-11T21:01:27.184Z,30.50
2022-10-11T21:03:54.743Z,25.38
2022-10-11T21:06:21.646Z,28.65
2022-10-11T21:08:48.463Z,27.75
2022-10-11T21:11:15.364Z,28.10
2022-10-11T21:13:42.768Z,26.85
2022-10-11T21:16:14.530Z,30.48
2022-10-11T21:18:41.862Z,28.38
2022-10-11T21:21:10.947Z,37.13
2022-10-11T21:23:38.021Z,32.63
2022-10-11T21:26:07.326Z,27.20
2022-10-11T21:28:34.290Z,30.50
2022-10-11T21:31:05.717Z,30.77
2022-10-11T21:33:34.165Z,30.70
2022-10-11T21:36:05.585Z,29.02
2022-10-11T21:38:32.679Z,34.40
2022-10-11T21:41:02.212Z,30.15
2022-10-11T21:43:28.931Z,30.05
2022-10-11T21:45:55.712Z,38.05
2022-10-11T21:48:22.445Z,30.30
2022-10-11T21:50:55.465Z,33.75
2022-10-11T21:53:22.288Z,39.55
2022-10-11T21:55:48.983Z,34.33
2022-10-11T21:58:15.655Z,29.27
2022-10-11T22:00:42.392Z,33.92
2022-10-11T22:03:09.076Z,28.58
2022-10-11T22:05:35.898Z,38.08
2022-10-11T22:08:02.583Z,37.55
2022-10-11T22:10:29.292Z,34.28
2022-10-11T22:12:55.996Z,32.10
2022-10-11T22:15:22.943Z,42.42
2022-10-11T22:17:49.645Z,35.47
2022-10-11T22:20:16.435Z,34.45
2022-10-11T22:22:43.136Z,31.58
2022-10-11T22:25:09.858Z,32.50
2022-10-11T22:27:36.883Z,32.47
2022-10-11T22:30:03.987Z,36.30
2022-10-11T22:32:30.796Z,33.22
2022-10-11T22:34:57.543Z,31.30
2022-10-11T22:37:24.285Z,34.72
2022-10-11T22:39:51.018Z,33.88
2022-10-11T22:42:17.747Z,33.13
2022-10-11T22:44:44.543Z,30.67
2022-10-11T22:47:11.260Z,38.13
2022-10-11T22:49:38.093Z,36.90
2022-10-11T22:52:04.872Z,40.15
2022-10-11T22:54:31.551Z,30.00
2022-10-11T22:56:58.243Z,29.65
2022-10-11T22:59:24.970Z,28.27
2022-10-11T23:01:51.629Z,34.65
2022-10-11T23:04:19.163Z,36.42
2022-10-11T23:06:45.895Z,37.88
2022-10-11T23:09:12.762Z,36.58
2022-10-11T23:11:39.491Z,42.92
2022-10-11T23:14:06.337Z,44.78
2022-10-11T23:16:33.051Z,41.17
2022-10-11T23:18:59.735Z,45.08
2022-10-11T23:21:27.104Z,45.55
2022-10-11T23:23:54.081Z,44.45
2022-10-11T23:26:21.576Z,42.88
2022-10-11T23:28:48.432Z,37.70
2022-10-11T23:31:17.825Z,43.58
2022-10-11T23:33:45.452Z,44.40
2022-10-11T23:36:17.864Z,44.75
2022-10-11T23:38:44.942Z,45.97
2022-10-11T23:41:11.812Z,43.88
2022-10-11T23:43:38.571Z,36.78
2022-10-11T23:46:05.352Z,41.05
2022-10-11T23:48:32.043Z,37.90
2022-10-11T23:50:58.796Z,36.45
2022-10-11T23:53:25.573Z,39.95
2022-10-11T23:55:52.308Z,35.92
2022-10-11T23:58:19.064Z,44.95
